Time;durP1;ratioP1;P1;durP2;ratioP2;P2;SDS_P1;SDS_P2;PMS_P1;PMS_P2;Temp;Humidity;BMP_temperature;BMP_pressure;BME280_temperature;BME280_humidity;BME280_pressure;Samples;Min_cycle;Max_cycle;Signal;HPM_P1;HPM_P2
2023/01/29 00:01:13;;;;;;;38.85;20.73;;;;;;;2.94;100.00;102481.13;4991655;28;20189;-44
2023/01/29 00:03:40;;;;;;;39.63;19.52;;;;;;;2.95;100.00;102474.06;4992722;28;20807;-44
2023/01/29 00:06:07;;;;;;;39.63;20.27;;;;;;;2.96;100.00;102474.09;4993503;28;20557;-45
2023/01/29 00:08:34;;;;;;;39.85;20.88;;;;;;;2.92;100.00;102480.19;4991036;28;20696;-43
2023/01/29 00:11:04;;;;;;;42.75;20.08;;;;;;;2.93;100.00;102479.34;4991522;28;20197;-44
2023/01/29 00:13:30;;;;;;;43.97;20.77;;;;;;;2.95;100.00;102480.28;4992538;28;20184;-44
2023/01/29 00:15:57;;;;;;;41.22;19.70;;;;;;;2.94;100.00;102478.47;4991503;28;20639;-44
2023/01/29 00:18:24;;;;;;;39.58;18.77;;;;;;;2.93;100.00;102473.16;4991866;28;20259;-44
2023/01/29 00:20:50;;;;;;;36.78;17.40;;;;;;;2.99;100.00;102475.91;4991201;28;20284;-46
2023/01/29 00:23:16;;;;;;;40.10;18.77;;;;;;;2.97;100.00;102469.69;4992366;28;20287;-43
2023/01/29 00:25:41;;;;;;;35.88;17.10;;;;;;;3.01;100.00;102477.72;4991709;28;20181;-44
2023/01/29 00:28:07;;;;;;;42.47;17.17;;;;;;;3.03;100.00;102483.94;4990234;28;20197;-45
2023/01/29 00:30:33;;;;;;;31.13;15.35;;;;;;;3.05;100.00;102473.41;4992452;28;20377;-44
2023/01/29 00:32:58;;;;;;;48.40;17.98;;;;;;;3.02;100.00;102473.34;4992161;28;20176;-45
2023/01/29 00:35:25;;;;;;;42.97;17.35;;;;;;;2.99;100.00;102467.97;4993018;28;20659;-42
2023/01/29 00:37:51;;;;;;;41.38;18.73;;;;;;;2.94;100.00;102459.94;4991549;28;20304;-44
2023/01/29 00:40:16;;;;;;;44.90;18.55;;;;;;;2.89;100.00;102462.50;4989926;28;20260;-43
2023/01/29 00:45:30;;;;;;;39.45;17.73;;;;;;;2.91;100.00;102453.69;4989879;28;20189;-43
2023/01/29 00:47:56;;;;;;;38.78;17.13;;;;;;;2.93;100.00;102452.88;4989924;28;20647;-43
2023/01/29 00:50:22;;;;;;;43.70;17.70;;;;;;;2.92;100.00;102460.78;4991151;28;20181;-44
2023/01/29 00:52:48;;;;;;;35.53;17.52;;;;;;;2.97;100.00;102453.81;4989436;28;20512;-46
2023/01/29 00:55:14;;;;;;;40.17;17.13;;;;;;;2.96;100.00;102442.34;4989880;28;20196;-43
2023/01/29 00:57:40;;;;;;;38.85;16.73;;;;;;;3.03;100.00;102446.00;4989296;28;20217;-44
2023/01/29 01:00:09;;;;;;;33.97;15.98;;;;;;;2.99;100.00;102457.38;4995485;28;20204;-44
2023/01/29 01:05:19;;;;;;;29.23;15.07;;;;;;;2.99;100.00;102460.03;4991060;28;20193;-43
2023/01/29 01:07:47;;;;;;;32.60;14.65;;;;;;;3.05;100.00;102465.47;4988989;28;20304;-43
2023/01/29 01:10:21;;;;;;;33.50;15.80;;;;;;;3.03;100.00;102461.88;4992265;28;20247;-43
2023/01/29 01:12:49;;;;;;;35.97;16.73;;;;;;;3.01;100.00;102453.00;4982343;28;20176;-42
2023/01/29 01:15:16;;;;;;;40.15;17.80;;;;;;;3.07;100.00;102466.38;4991113;28;20188;-44
2023/01/29 01:17:41;;;;;;;34.33;16.42;;;;;;;3.05;100.00;102457.50;4990271;28;20198;-45
2023/01/29 01:20:08;;;;;;;30.90;15.35;;;;;;;3.06;100.00;102465.50;4989537;28;20268;-44
2023/01/29 01:22:34;;;;;;;26.73;14.52;;;;;;;3.15;100.00;102459.47;4989566;28;20208;-45
2023/01/29 01:25:00;;;;;;;26.13;14.98;;;;;;;3.13;100.00;102442.66;4997665;28;20185;-46
2023/01/29 01:27:25;;;;;;;29.05;14.57;;;;;;;3.08;100.00;102445.22;4990541;28;20209;-45
2023/01/29 01:29:51;;;;;;;32.95;15.63;;;;;;;3.09;100.00;102425.81;4991307;28;20193;-45
2023/01/29 01:32:16;;;;;;;32.03;16.92;;;;;;;3.06;100.00;102430.16;4989023;28;20666;-44
2023/01/29 01:34:44;;;;;;;30.17;15.52;;;;;;;2.99;100.00;102437.09;4991419;28;20231;-44
2023/01/29 01:37:12;;;;;;;29.73;15.93;;;;;;;2.96;100.00;102430.88;4988648;28;20217;-43
2023/01/29 01:39:37;;;;;;;37.35;16.83;;;;;;;2.93;100.00;102425.50;4994652;28;20298;-46
2023/01/29 01:42:03;;;;;;;32.67;16.58;;;;;;;2.88;100.00;102421.00;4990199;28;20181;-45
2023/01/29 01:44:50;;;;;;;32.42;15.57;;;;;;;2.91;100.00;102422.84;4991329;28;20213;-43
2023/01/29 01:47:19;;;;;;;34.47;16.33;;;;;;;2.92;100.00;102421.06;4989967;28;20558;-46
2023/01/29 01:49:46;;;;;;;30.80;14.77;;;;;;;2.87;100.00;102434.22;4992264;28;20436;-42
2023/01/29 01:52:15;;;;;;;32.05;13.77;;;;;;;2.94;100.00;102429.94;4990094;28;20217;-44
2023/01/29 01:54:41;;;;;;;30.10;13.77;;;;;;;2.95;100.00;102424.69;5005143;28;20180;-42
2023/01/29 01:57:15;;;;;;;23.30;12.07;;;;;;;2.97;100.00;102430.88;4995220;28;20295;-46
2023/01/29 01:59:49;;;;;;;22.08;10.75;;;;;;;3.01;100.00;102422.13;4975007;28;20661;-45
2023/01/29 02:10:40;;;;;;;18.55;9.75;;;;;;;3.17;100.00;102411.81;4991253;28;20268;-42
2023/01/29 02:13:06;;;;;;;15.48;8.20;;;;;;;3.16;100.00;102404.75;4989791;28;20184;-44
2023/01/29 02:15:32;;;;;;;22.02;9.88;;;;;;;3.14;100.00;102402.06;4988386;28;20185;-43
2023/01/29 02:17:58;;;;;;;22.45;9.95;;;;;;;3.20;100.00;102396.88;5000235;28;20215;-44
2023/01/29 02:20:30;;;;;;;23.95;10.15;;;;;;;3.19;100.00;102394.19;4989743;28;20243;-45
2023/01/29 02:23:08;;;;;;;16.33;9.13;;;;;;;3.26;100.00;102388.16;4998422;28;20209;-46
2023/01/29 02:25:59;;;;;;;23.60;10.18;;;;;;;3.20;100.00;102372.16;5002643;28;20186;-43
2023/01/29 02:28:27;;;;;;;25.20;10.75;;;;;;;3.23;100.00;102377.50;4988839;28;20197;-44
2023/01/29 02:31:14;;;;;;;21.77;10.55;;;;;;;3.20;100.00;102375.69;4989463;28;20181;-45
2023/01/29 02:34:03;;;;;;;23.83;10.32;;;;;;;3.21;100.00;102372.16;4988330;28;20191;-42
2023/01/29 02:36:38;;;;;;;26.60;10.07;;;;;;;3.21;100.00;102360.69;4984390;28;20228;-44
2023/01/29 02:39:13;;;;;;;23.40;9.77;;;;;;;3.27;100.00;102364.31;4987147;28;20187;-44
2023/01/29 02:42:06;;;;;;;22.80;9.70;;;;;;;3.26;100.00;102357.25;4988239;28;20228;-44
2023/01/29 02:44:45;;;;;;;21.38;9.55;;;;;;;3.26;100.00;102348.44;4986909;28;20475;-44
2023/01/29 02:47:14;;;;;;;22.75;8.70;;;;;;;3.26;100.00;102336.06;4986444;28;20589;-42
2023/01/29 02:49:46;;;;;;;20.30;8.95;;;;;;;3.27;100.00;102335.19;4989956;28;20553;-44
2023/01/29 02:56:06;;;;;;;22.15;8.73;;;;;;;3.32;100.00;102334.38;4987279;28;20731;-42
2023/01/29 02:58:52;;;;;;;27.02;9.40;;;;;;;3.30;100.00;102329.03;4992972;28;20228;-52
2023/01/29 03:01:29;;;;;;;24.08;8.88;;;;;;;3.33;100.00;102325.56;5006000;28;20184;-44
2023/01/29 03:04:01;;;;;;;24.08;9.07;;;;;;;3.30;100.00;102319.38;4993240;28;20205;-43
2023/01/29 03:06:34;;;;;;;23.80;8.95;;;;;;;3.28;100.00;102336.09;4992916;28;20640;-45
2023/01/29 03:09:03;;;;;;;20.95;7.90;;;;;;;3.36;100.00;102333.56;4993102;28;20268;-46
2023/01/29 03:11:41;;;;;;;21.20;7.57;;;;;;;3.27;100.00;102324.59;4991184;28;20659;-46
2023/01/29 03:14:12;;;;;;;19.10;7.00;;;;;;;3.35;100.00;102318.53;4993380;28;20231;-44
2023/01/29 03:16:45;;;;;;;14.85;6.20;;;;;;;3.37;100.00;102328.28;4991312;28;20232;-44
2023/01/29 03:19:33;;;;;;;18.00;6.85;;;;;;;3.35;100.00;102343.28;4992906;28;20683;-45
2023/01/29 03:22:03;;;;;;;16.20;6.72;;;;;;;3.29;100.00;102330.81;5005099;28;20178;-44
2023/01/29 03:34:03;;;;;;;17.73;7.35;;;;;;;3.19;100.00;102315.66;4990830;28;20181;-47
2023/01/29 03:36:38;;;;;;;17.60;8.18;;;;;;;3.18;100.00;102336.81;4991308;28;20215;-48
2023/01/29 03:39:10;;;;;;;20.85;8.90;;;;;;;3.16;100.00;102327.94;4991035;28;20197;-43
2023/01/29 03:41:52;;;;;;;23.48;9.88;;;;;;;3.17;100.00;102325.34;4990682;28;20188;-46
2023/01/29 03:44:32;;;;;;;17.15;8.90;;;;;;;3.22;100.00;102338.66;5002355;28;20270;-46
2023/01/29 03:47:31;;;;;;;21.98;10.65;;;;;;;3.24;100.00;102343.09;4990964;28;20201;-45
2023/01/29 03:50:33;;;;;;;17.27;9.38;;;;;;;3.30;100.00;102343.19;4985136;28;20217;-45
2023/01/29 03:53:32;;;;;;;25.98;11.02;;;;;;;3.18;100.00;102337.69;4989877;28;20593;-46
2023/01/29 03:56:24;;;;;;;16.95;10.10;;;;;;;3.21;100.00;102324.50;4980310;28;20280;-50
2023/01/29 03:58:52;;;;;;;22.75;11.25;;;;;;;3.18;100.00;102332.41;5006768;28;20185;-47
2023/01/29 04:01:25;;;;;;;29.02;11.73;;;;;;;3.14;100.00;102335.84;4995552;28;20240;-50
2023/01/29 04:04:16;;;;;;;21.10;11.27;;;;;;;3.18;100.00;102347.41;4990180;28;20466;-48
2023/01/29 04:06:44;;;;;;;22.13;10.45;;;;;;;3.15;100.00;102350.91;4993820;28;20209;-46
2023/01/29 04:09:16;;;;;;;23.73;10.98;;;;;;;3.11;100.00;102346.41;4998746;28;20220;-45
2023/01/29 04:11:48;;;;;;;18.85;10.77;;;;;;;3.13;100.00;102349.06;4996185;28;20185;-46
2023/01/29 04:14:14;;;;;;;21.52;11.07;;;;;;;3.12;100.00;102337.59;4994484;28;20177;-47
2023/01/29 04:16:46;;;;;;;22.95;10.65;;;;;;;3.09;100.00;102333.13;4988299;28;20212;-49
2023/01/29 04:19:19;;;;;;;18.48;11.48;;;;;;;3.11;100.00;102325.22;4991786;28;20192;-45
2023/01/29 04:21:48;;;;;;;22.60;11.18;;;;;;;3.07;100.00;102326.91;4991309;28;20528;-47
2023/01/29 04:24:14;;;;;;;19.73;10.68;;;;;;;3.11;100.00;102332.28;4996159;28;20247;-44
2023/01/29 04:26:54;;;;;;;21.52;11.13;;;;;;;3.13;100.00;102331.44;4988107;28;21891;-49
2023/01/29 04:29:54;;;;;;;22.60;11.40;;;;;;;3.14;100.00;102309.38;5005895;28;20212;-45
2023/01/29 04:33:07;;;;;;;17.20;10.00;;;;;;;3.15;100.00;102308.53;4991039;28;20181;-44
2023/01/29 04:36:15;;;;;;;22.95;10.73;;;;;;;3.14;100.00;102306.72;4989438;28;20824;-44
2023/01/29 04:38:56;;;;;;;18.65;10.73;;;;;;;3.12;100.00;102297.88;4990867;28;21250;-46
2023/01/29 04:41:30;;;;;;;20.95;10.88;;;;;;;3.12;100.00;102284.63;4990575;28;20192;-46
2023/01/29 04:44:20;;;;;;;23.77;10.27;;;;;;;3.21;100.00;102290.06;4992415;28;20617;-45
2023/01/29 04:47:23;;;;;;;21.48;9.52;;;;;;;3.19;100.00;102293.56;4990549;28;20216;-46
2023/01/29 04:50:25;;;;;;;16.92;10.57;;;;;;;3.19;100.00;102297.13;4990729;28;20180;-45
2023/01/29 04:53:06;;;;;;;15.48;9.75;;;;;;;3.18;100.00;102297.97;4990121;28;20195;-45
2023/01/29 04:55:50;;;;;;;23.75;10.38;;;;;;;3.18;100.00;102295.31;4990196;28;20193;-46
2023/01/29 04:58:21;;;;;;;21.17;10.35;;;;;;;3.20;100.00;102285.66;4990573;28;20201;-43
2023/01/29 05:00:52;;;;;;;18.75;10.55;;;;;;;3.18;100.00;102287.38;4990443;28;20224;-46
2023/01/29 05:03:20;;;;;;;18.50;10.32;;;;;;;3.20;100.00;102295.34;4992653;28;20201;-44
2023/01/29 05:05:47;;;;;;;19.60;10.90;;;;;;;3.19;100.00;102291.81;4990962;28;20200;-47
2023/01/29 05:08:16;;;;;;;20.83;11.45;;;;;;;3.20;100.00;102283.00;4993266;28;20263;-44
2023/01/29 05:10:42;;;;;;;28.77;13.38;;;;;;;3.19;100.00;102275.94;4989746;28;20176;-45
2023/01/29 05:13:12;;;;;;;25.05;13.88;;;;;;;3.19;100.00;102281.22;4990732;28;20640;-46
2023/01/29 05:15:40;;;;;;;21.67;14.65;;;;;;;3.23;100.00;102280.38;4990843;28;20530;-45
2023/01/29 05:18:07;;;;;;;19.35;14.18;;;;;;;3.28;100.00;102283.13;4990839;28;20217;-44
2023/01/29 05:20:37;;;;;;;29.35;15.38;;;;;;;3.27;100.00;102297.22;4988923;28;20644;-46
2023/01/29 05:23:03;;;;;;;26.95;16.88;;;;;;;3.26;100.00;102293.69;4990531;28;20213;-45
2023/01/29 05:25:31;;;;;;;32.90;15.93;;;;;;;3.29;100.00;102283.13;4990571;28;20564;-45
2023/01/29 05:28:10;;;;;;;29.95;16.75;;;;;;;3.30;100.00;102271.69;4989730;28;20220;-49
2023/01/29 05:30:37;;;;;;;27.42;15.23;;;;;;;3.32;100.00;102274.34;4990222;28;20177;-44
2023/01/29 05:33:09;;;;;;;29.20;15.88;;;;;;;3.32;100.00;102247.84;4990913;28;20669;-46
2023/01/29 05:35:35;;;;;;;28.80;16.65;;;;;;;3.35;100.00;102239.06;4990158;28;20181;-47
2023/01/29 05:38:00;;;;;;;30.08;16.15;;;;;;;3.33;100.00;102252.28;4990517;28;20201;-44
2023/01/29 05:40:26;;;;;;;28.52;16.23;;;;;;;3.36;100.00;102262.03;4989548;28;20212;-47
2023/01/29 05:42:51;;;;;;;24.85;15.82;;;;;;;3.40;100.00;102250.63;4990155;28;20212;-49
2023/01/29 05:45:18;;;;;;;25.73;16.42;;;;;;;3.38;100.00;102229.38;4990373;28;20169;-45
2023/01/29 05:47:44;;;;;;;31.42;15.93;;;;;;;3.41;100.00;102241.78;4989907;28;20258;-47
2023/01/29 05:50:10;;;;;;;21.98;14.90;;;;;;;3.39;100.00;102230.28;4990620;28;20549;-49
2023/01/29 05:52:35;;;;;;;27.50;14.82;;;;;;;3.39;100.00;102235.56;4991554;28;20198;-48
2023/01/29 05:55:01;;;;;;;22.20;14.38;;;;;;;3.40;100.00;102229.44;4990686;28;20407;-45
2023/01/29 05:57:26;;;;;;;20.60;14.35;;;;;;;3.42;100.00;102230.34;4990173;28;20220;-45
2023/01/29 05:59:52;;;;;;;23.90;13.85;;;;;;;3.42;100.00;102228.56;4990015;28;20320;-48
2023/01/29 06:02:17;;;;;;;21.55;12.75;;;;;;;3.49;100.00;102209.22;4987904;28;20682;-44
2023/01/29 06:04:43;;;;;;;27.60;14.02;;;;;;;3.41;100.00;102202.03;5027513;22;20232;-44
2023/01/29 06:07:08;;;;;;;19.75;12.63;;;;;;;3.46;100.00;102206.56;5024437;28;20213;-43
2023/01/29 06:09:34;;;;;;;21.98;12.45;;;;;;;3.43;100.00;102200.31;4995358;28;20268;-43
2023/01/29 06:11:59;;;;;;;20.08;11.95;;;;;;;3.43;100.00;102200.31;5004640;28;20181;-43
2023/01/29 06:14:25;;;;;;;16.75;11.00;;;;;;;3.47;100.00;102200.38;5008960;28;20618;-44
2023/01/29 06:16:50;;;;;;;15.93;10.43;;;;;;;3.43;100.00;102216.22;4994922;28;20303;-42
2023/01/29 06:19:17;;;;;;;15.02;10.20;;;;;;;3.48;100.00;102215.41;4990275;28;20239;-42
2023/01/29 06:21:42;;;;;;;13.23;9.10;;;;;;;3.50;100.00;102208.38;4996168;28;20215;-44
2023/01/29 06:24:08;;;;;;;18.00;10.65;;;;;;;3.51;100.00;102202.19;4999006;28;20228;-43
2023/01/29 06:26:33;;;;;;;13.45;9.32;;;;;;;3.45;100.00;102201.22;4994708;28;20291;-46
2023/01/29 06:28:59;;;;;;;12.27;9.27;;;;;;;3.45;100.00;102199.44;4995818;28;20644;-43
2023/01/29 06:31:24;;;;;;;13.85;9.02;;;;;;;3.45;100.00;102194.16;4999283;28;20180;-43
2023/01/29 06:33:50;;;;;;;15.00;8.60;;;;;;;3.48;100.00;102195.97;5005211;28;20169;-43
2023/01/29 06:36:15;;;;;;;12.45;7.80;;;;;;;3.45;100.00;102190.63;4995905;28;20264;-48
2023/01/29 06:38:41;;;;;;;10.95;6.72;;;;;;;3.46;100.00;102187.13;5001552;28;20189;-42
2023/01/29 06:41:11;;;;;;;9.40;6.88;;;;;;;3.46;100.00;102188.00;5002873;28;20181;-42
2023/01/29 06:43:38;;;;;;;9.95;6.85;;;;;;;3.49;100.00;102185.38;4999099;28;20252;-43
2023/01/29 06:46:06;;;;;;;7.60;6.43;;;;;;;3.50;100.00;102167.75;5002889;28;20269;-42
2023/01/29 06:48:32;;;;;;;8.05;6.53;;;;;;;3.57;100.00;102182.84;5001445;28;20196;-48
2023/01/29 06:51:08;;;;;;;9.82;5.82;;;;;;;3.54;100.00;102181.91;4997440;28;20193;-44
2023/01/29 06:53:36;;;;;;;6.32;5.50;;;;;;;3.55;100.00;102176.63;4994554;28;20218;-45
2023/01/29 06:56:02;;;;;;;10.60;6.05;;;;;;;3.56;100.00;102161.63;4996175;28;20190;-46
2023/01/29 06:58:27;;;;;;;12.35;5.97;;;;;;;3.55;100.00;102157.19;4995876;28;20240;-46
2023/01/29 07:00:53;;;;;;;10.32;5.13;;;;;;;3.64;100.00;102152.88;5001488;28;20308;-49
2023/01/29 07:03:18;;;;;;;12.15;4.90;;;;;;;3.56;100.00;102162.50;4994955;28;20216;-45
2023/01/29 07:05:51;;;;;;;7.65;4.20;;;;;;;3.59;100.00;102159.91;4998957;28;20184;-49
2023/01/29 07:08:17;;;;;;;9.80;4.18;;;;;;;3.59;100.00;102153.72;4997648;28;20227;-47
2023/01/29 07:10:43;;;;;;;12.57;4.45;;;;;;;3.64;100.00;102152.88;4997306;28;20189;-46
2023/01/29 07:13:08;;;;;;;8.75;4.40;;;;;;;3.63;100.00;102155.50;4998269;28;20170;-47
2023/01/29 07:15:35;;;;;;;13.20;4.43;;;;;;;3.59;100.00;102169.63;4996943;28;20201;-47
2023/01/29 07:18:11;;;;;;;7.30;4.00;;;;;;;3.64;100.00;102166.13;5001881;28;20201;-48
2023/01/29 07:20:38;;;;;;;11.75;5.10;;;;;;;3.59;100.00;102153.72;4996775;28;20185;-47
2023/01/29 07:23:03;;;;;;;6.25;4.18;;;;;;;3.62;100.00;102159.03;4997957;28;20255;-46
2023/01/29 07:25:29;;;;;;;9.70;3.97;;;;;;;3.64;100.00;102157.31;4996831;28;20264;-47
2023/01/29 07:27:55;;;;;;;8.18;3.80;;;;;;;3.60;100.00;102152.84;5010837;28;20567;-47
2023/01/29 07:30:21;;;;;;;6.93;3.83;;;;;;;3.59;100.00;102154.59;4998046;28;20201;-46
2023/01/29 07:32:46;;;;;;;9.85;3.80;;;;;;;3.60;100.00;102151.06;4993855;28;20173;-45
2023/01/29 07:35:12;;;;;;;7.18;4.05;;;;;;;3.66;100.00;102145.84;4999457;28;20703;-47
2023/01/29 07:37:37;;;;;;;9.07;4.78;;;;;;;3.65;100.00;102148.47;4992387;28;20212;-47
2023/01/29 07:40:09;;;;;;;7.30;5.50;;;;;;;3.59;100.00;102159.03;4994825;28;20227;-47
2023/01/29 07:42:34;;;;;;;10.65;7.07;;;;;;;3.53;100.00;102154.53;4993929;28;20175;-46
2023/01/29 07:45:00;;;;;;;12.55;7.85;;;;;;;3.53;100.00;102148.34;4996154;28;20550;-46
2023/01/29 07:47:26;;;;;;;11.82;8.70;;;;;;;3.56;100.00;102153.66;4993569;28;20218;-45
2023/01/29 07:49:51;;;;;;;14.48;9.57;;;;;;;3.50;100.00;102144.78;4996836;28;20272;-47
2023/01/29 07:52:17;;;;;;;13.15;9.43;;;;;;;3.46;100.00;102148.25;4993096;28;20695;-45
2023/01/29 07:54:43;;;;;;;14.00;10.05;;;;;;;3.47;100.00;102144.72;4994070;28;20223;-46
2023/01/29 07:57:08;;;;;;;15.30;10.32;;;;;;;3.45;100.00;102133.22;4994176;28;20343;-46
2023/01/29 07:59:34;;;;;;;20.52;15.23;;;;;;;3.47;100.00;102147.38;4995168;28;20522;-48
2023/01/29 08:01:59;;;;;;;22.35;12.68;;;;;;;3.42;100.00;102145.56;4996799;28;20264;-46
2023/01/29 08:04:25;;;;;;;15.02;11.65;;;;;;;3.43;100.00;102148.25;4992874;28;20209;-46
2023/01/29 08:06:50;;;;;;;14.30;10.88;;;;;;;3.45;100.00;102157.06;4998484;28;20637;-46
2023/01/29 08:09:16;;;;;;;14.98;10.82;;;;;;;3.49;100.00;102169.47;4994654;28;20194;-47
2023/01/29 08:11:41;;;;;;;15.75;11.00;;;;;;;3.46;100.00;102161.50;4994259;28;20185;-46
2023/01/29 08:14:08;;;;;;;16.15;11.52;;;;;;;3.50;100.00;102171.28;4999166;28;20180;-47
2023/01/29 08:16:34;;;;;;;15.48;10.57;;;;;;;3.45;100.00;102154.41;4995194;28;20579;-46
2023/01/29 08:19:01;;;;;;;13.30;9.73;;;;;;;3.52;100.00;102152.75;4991767;28;20196;-46
2023/01/29 08:21:27;;;;;;;15.32;9.57;;;;;;;3.47;100.00;102157.09;4992600;28;20181;-47
2023/01/29 08:23:52;;;;;;;14.48;9.50;;;;;;;3.48;100.00;102158.88;4992116;28;20566;-47
2023/01/29 08:26:18;;;;;;;12.02;9.43;;;;;;;3.51;100.00;102145.66;4992657;28;20252;-44
2023/01/29 08:28:43;;;;;;;12.05;8.95;;;;;;;3.55;100.00;102147.47;4996420;28;20216;-49
2023/01/29 08:31:13;;;;;;;11.15;8.98;;;;;;;3.53;100.00;102140.41;5002275;28;20251;-48
2023/01/29 08:33:39;;;;;;;13.25;10.00;;;;;;;3.51;100.00;102135.94;5000722;28;20262;-46
2023/01/29 08:36:06;;;;;;;11.27;9.43;;;;;;;3.56;100.00;102133.34;4996061;28;20189;-48
2023/01/29 08:38:31;;;;;;;10.20;9.23;;;;;;;3.53;100.00;102137.75;4997268;28;20623;-50
2023/01/29 08:40:57;;;;;;;13.40;9.73;;;;;;;3.55;100.00;102136.88;4994443;28;20181;-49
2023/01/29 08:43:23;;;;;;;12.90;9.50;;;;;;;3.59;100.00;102137.81;4994900;28;20213;-47
2023/01/29 08:45:48;;;;;;;12.45;10.27;;;;;;;3.61;100.00;102129.00;4997943;28;20364;-44
2023/01/29 08:48:13;;;;;;;15.88;10.70;;;;;;;3.57;100.00;102119.25;4995458;28;20216;-45
2023/01/29 08:50:39;;;;;;;14.55;11.55;;;;;;;3.58;100.00;102113.06;4993650;28;20285;-46
2023/01/29 08:53:06;;;;;;;16.92;11.93;;;;;;;3.56;100.00;102112.16;4997930;28;20174;-47
2023/01/29 08:55:35;;;;;;;18.10;12.23;;;;;;;3.64;100.00;102107.84;4993314;28;20185;-44
2023/01/29 08:58:02;;;;;;;17.00;12.75;;;;;;;3.63;100.00;102110.47;4997966;28;20230;-46
2023/01/29 09:00:27;;;;;;;15.48;13.07;;;;;;;3.61;100.00;102102.50;4993300;28;20192;-46
2023/01/29 09:02:52;;;;;;;15.00;13.38;;;;;;;3.64;100.00;102109.59;4996071;28;20205;-45
2023/01/29 09:05:18;;;;;;;16.63;13.65;;;;;;;3.68;100.00;102111.41;4992145;28;20181;-46
2023/01/29 09:07:43;;;;;;;19.52;14.27;;;;;;;3.65;100.00;102106.97;4994132;28;20201;-46
2023/01/29 09:10:11;;;;;;;19.25;13.95;;;;;;;3.60;100.00;102098.06;4995426;28;20281;-44
2023/01/29 09:12:36;;;;;;;16.77;12.68;;;;;;;3.57;100.00;102103.34;4993051;28;20239;-45
2023/01/29 09:15:02;;;;;;;20.80;13.35;;;;;;;3.58;100.00;102099.81;4997613;28;20189;-45
2023/01/29 09:17:28;;;;;;;17.77;12.60;;;;;;;3.59;100.00;102101.59;4992202;28;20750;-47
2023/01/29 09:19:53;;;;;;;18.88;12.50;;;;;;;3.59;100.00;102096.31;4995321;28;20185;-45
2023/01/29 09:22:19;;;;;;;17.95;13.07;;;;;;;3.56;100.00;102082.13;4995269;28;20169;-46
2023/01/29 09:24:45;;;;;;;16.65;12.40;;;;;;;3.57;100.00;102074.19;4994378;28;20205;-46
2023/01/29 09:27:10;;;;;;;15.70;12.48;;;;;;;3.56;100.00;102071.53;4996339;28;20259;-46
2023/01/29 09:29:36;;;;;;;16.52;11.43;;;;;;;3.50;100.00;102060.00;4995109;28;20189;-43
2023/01/29 09:32:05;;;;;;;13.57;10.30;;;;;;;3.45;100.00;102074.06;4992324;28;20173;-43
2023/01/29 09:34:31;;;;;;;13.00;9.48;;;;;;;3.45;100.00;102074.94;4996257;28;20588;-43
2023/01/29 09:36:56;;;;;;;14.48;10.90;;;;;;;3.45;100.00;102077.59;4994346;28;20300;-43
2023/01/29 09:39:21;;;;;;;15.93;11.93;;;;;;;3.46;100.00;102076.72;4993216;28;20172;-43
2023/01/29 09:41:52;;;;;;;16.92;11.77;;;;;;;3.40;100.00;102068.72;4995431;28;20268;-44
2023/01/29 09:45:08;;;;;;;14.75;11.02;;;;;;;3.51;100.00;102059.09;4992730;28;20547;-42
2023/01/29 09:47:35;;;;;;;19.10;11.50;;;;;;;3.46;100.00;102059.94;4998889;28;20224;-44
2023/01/29 09:50:19;;;;;;;17.95;11.65;;;;;;;3.45;100.00;102071.41;4991907;28;20628;-45
2023/01/29 09:53:21;;;;;;;16.10;10.82;;;;;;;3.48;100.00;102058.22;4988904;28;20189;-44
2023/01/29 09:55:58;;;;;;;14.45;9.95;;;;;;;3.44;100.00;102061.69;4991458;28;20173;-46
2023/01/29 09:58:29;;;;;;;12.82;10.38;;;;;;;3.47;100.00;102053.75;4991966;28;20217;-45
2023/01/29 10:01:07;;;;;;;14.82;9.93;;;;;;;3.42;100.00;102045.78;4992143;28;20161;-45
2023/01/29 10:03:58;;;;;;;14.23;10.85;;;;;;;3.58;100.00;102056.53;4991164;28;20209;-45
2023/01/29 10:06:31;;;;;;;11.95;9.18;;;;;;;3.54;100.00;102038.81;4995196;28;20668;-46
2023/01/29 10:09:02;;;;;;;11.98;10.07;;;;;;;3.51;100.00;102047.63;4992497;28;20185;-45
2023/01/29 10:11:47;;;;;;;14.02;9.65;;;;;;;3.49;100.00;102039.66;4991396;28;20267;-45
2023/01/29 10:14:39;;;;;;;12.93;9.80;;;;;;;3.55;100.00;102032.66;4994515;28;20200;-46
2023/01/29 10:17:47;;;;;;;12.82;9.82;;;;;;;3.55;100.00;102027.38;4991665;28;20716;-45
2023/01/29 10:20:44;;;;;;;15.30;10.07;;;;;;;3.49;100.00;102020.22;4992383;28;20180;-46
2023/01/29 10:23:27;;;;;;;12.90;9.57;;;;;;;3.49;100.00;102007.84;4993808;28;20716;-44
2023/01/29 10:25:53;;;;;;;9.57;8.20;;;;;;;3.56;100.00;102000.84;4991920;28;20569;-46
2023/01/29 10:28:45;;;;;;;12.35;8.30;;;;;;;3.57;100.00;101992.06;4993473;28;20668;-44
2023/01/29 10:31:13;;;;;;;11.77;8.23;;;;;;;3.61;100.00;101999.16;4997383;28;20205;-46
2023/01/29 10:33:42;;;;;;;10.80;8.02;;;;;;;3.63;100.00;101989.47;4994497;28;20687;-44
2023/01/29 10:36:16;;;;;;;12.07;7.78;;;;;;;3.57;100.00;101980.56;4996540;28;20188;-45
2023/01/29 10:38:44;;;;;;;12.57;8.70;;;;;;;3.61;100.00;101985.03;4991147;28;20605;-43
2023/01/29 10:41:10;;;;;;;11.73;9.23;;;;;;;3.61;100.00;101985.91;4994609;28;20248;-45
2023/01/29 10:43:49;;;;;;;11.63;9.20;;;;;;;3.68;100.00;101981.56;4993028;28;20276;-46
2023/01/29 10:46:41;;;;;;;12.75;9.52;;;;;;;3.59;100.00;101970.88;4994891;28;20184;-46
2023/01/29 10:49:16;;;;;;;11.57;9.65;;;;;;;3.71;100.00;101955.06;4994761;28;20659;-45
2023/01/29 10:51:59;;;;;;;12.98;10.48;;;;;;;3.66;100.00;101947.06;4991374;28;20188;-45
2023/01/29 10:55:15;;;;;;;13.48;11.43;;;;;;;3.63;100.00;101944.41;5006999;28;20184;-45
2023/01/29 10:58:08;;;;;;;14.63;10.50;;;;;;;3.75;100.00;101940.97;4991825;28;20301;-46
2023/01/29 11:00:39;;;;;;;12.75;11.07;;;;;;;3.72;100.00;101938.31;4995970;28;20813;-46
2023/01/29 11:03:22;;;;;;;15.98;12.13;;;;;;;3.64;100.00;101940.00;4992145;28;20225;-46
2023/01/29 11:06:01;;;;;;;16.52;12.05;;;;;;;3.65;100.00;101934.72;4992158;28;20173;-45
2023/01/29 11:09:10;;;;;;;18.33;12.77;;;;;;;3.60;100.00;101925.81;4995356;28;20253;-45
2023/01/29 11:11:49;;;;;;;19.35;13.10;;;;;;;3.60;100.00;101930.25;4990292;28;20661;-45
2023/01/29 11:14:23;;;;;;;17.52;12.88;;;;;;;3.65;100.00;101921.47;4996224;28;20185;-45
2023/01/29 11:16:49;;;;;;;18.90;12.95;;;;;;;3.66;100.00;101911.75;4991053;28;20209;-46
2023/01/29 11:19:15;;;;;;;18.75;13.68;;;;;;;3.67;100.00;101897.59;5012067;28;20220;-46
2023/01/29 11:21:56;;;;;;;21.48;13.27;;;;;;;3.72;100.00;101890.59;4998245;28;20228;-46
2023/01/29 11:24:21;;;;;;;16.45;12.65;;;;;;;3.74;100.00;101882.63;4993963;28;20632;-44
2023/01/29 11:26:49;;;;;;;15.77;11.48;;;;;;;3.77;100.00;101880.91;4993911;28;20193;-46
2023/01/29 11:29:36;;;;;;;18.52;12.30;;;;;;;3.74;100.00;101886.19;4994028;28;20181;-46
2023/01/29 11:32:35;;;;;;;18.15;12.80;;;;;;;3.79;100.00;101879.16;4992940;28;20189;-44
2023/01/29 11:35:18;;;;;;;16.98;11.50;;;;;;;3.89;100.00;101870.38;4993548;28;20274;-45
2023/01/29 11:37:45;;;;;;;17.60;11.63;;;;;;;3.89;100.00;101873.03;4995710;28;20216;-47
2023/01/29 11:40:33;;;;;;;14.30;10.65;;;;;;;3.92;100.00;101878.34;4999685;28;20177;-46
2023/01/29 11:43:12;;;;;;;14.57;10.30;;;;;;;3.94;100.00;101857.16;4995162;28;20220;-44
2023/01/29 11:45:40;;;;;;;14.82;10.68;;;;;;;4.01;100.00;101856.28;4996465;28;20215;-47
2023/01/29 11:48:18;;;;;;;14.25;10.35;;;;;;;3.97;100.00;101859.81;4998392;28;20244;-44
2023/01/29 11:50:50;;;;;;;14.82;11.13;;;;;;;4.05;100.00;101851.91;4994776;28;20604;-45
2023/01/29 11:53:43;;;;;;;13.50;10.00;;;;;;;3.99;100.00;101834.19;5000034;28;20176;-46
2023/01/29 11:56:34;;;;;;;16.20;10.75;;;;;;;3.94;100.00;101850.97;4996673;28;20596;-45
2023/01/29 11:59:03;;;;;;;15.57;10.77;;;;;;;3.93;100.00;101839.44;4994573;28;20201;-45
2023/01/29 12:01:37;;;;;;;11.32;10.07;;;;;;;4.01;100.00;101828.91;4997081;28;20592;-46